createdAt,value
2023-05-15T00:00:31.028Z,86.72
2023-05-15T00:02:46.917Z,87.93
2023-05-15T00:04:42.505Z,89.02
2023-05-15T00:06:37.806Z,90.82
2023-05-15T00:08:33.113Z,91.59
2023-05-15T00:10:28.146Z,91.62
2023-05-15T00:12:26.153Z,91.70
2023-05-15T00:14:21.218Z,92.37
2023-05-15T00:16:16.616Z,91.82
2023-05-15T00:18:11.718Z,91.95
2023-05-15T00:20:09.894Z,92.50
2023-05-15T00:22:04.943Z,92.23
2023-05-15T00:24:00.708Z,92.36
2023-05-15T00:25:55.798Z,92.16
2023-05-15T00:27:53.725Z,91.88
2023-05-15T00:29:48.734Z,91.76
2023-05-15T00:31:44.098Z,92.03
2023-05-15T00:33:39.134Z,92.24
2023-05-15T00:35:35.407Z,91.62
2023-05-15T00:37:30.417Z,90.32
2023-05-15T00:39:25.909Z,90.05
2023-05-15T00:41:21.751Z,90.39
2023-05-15T00:43:20.259Z,90.41
2023-05-15T00:45:17.028Z,90.35
2023-05-15T00:47:14.267Z,91.88
2023-05-15T00:49:13.668Z,93.77
2023-05-15T00:51:09.151Z,96.38
2023-05-15T00:53:04.714Z,99.05
2023-05-15T00:55:00.747Z,98.72
2023-05-15T00:56:59.076Z,99.51
2023-05-15T00:58:59.830Z,100.00
2023-05-15T01:00:56.347Z,99.52
2023-05-15T01:02:49.997Z,99.65
2023-05-15T01:04:45.273Z,99.76
2023-05-15T01:06:40.979Z,100.00
2023-05-15T01:08:43.648Z,100.00
2023-05-15T01:10:39.644Z,100.00
2023-05-15T01:12:35.679Z,100.00
2023-05-15T01:14:33.583Z,100.00
2023-05-15T01:16:28.613Z,100.00
2023-05-15T01:18:24.044Z,100.00
2023-05-15T01:20:21.738Z,100.00
2023-05-15T01:22:44.225Z,100.00
2023-05-15T01:25:02.100Z,100.00
2023-05-15T01:27:14.841Z,100.00
2023-05-15T01:29:15.288Z,100.00
2023-05-15T01:31:17.473Z,100.00
2023-05-15T01:33:20.891Z,100.00
2023-05-15T01:35:23.865Z,100.00
2023-05-15T01:37:23.917Z,100.00
2023-05-15T01:39:26.406Z,100.00
2023-05-15T01:41:27.888Z,100.00
2023-05-15T01:43:31.075Z,100.00
2023-05-15T01:45:27.833Z,100.00
2023-05-15T01:47:30.157Z,100.00
2023-05-15T01:49:29.591Z,100.00
2023-05-15T01:51:27.211Z,100.00
2023-05-15T01:53:23.052Z,100.00
2023-05-15T01:55:18.803Z,100.00
2023-05-15T01:57:14.859Z,100.00
2023-05-15T01:59:13.724Z,100.00
2023-05-15T02:01:09.826Z,100.00
2023-05-15T02:03:06.482Z,100.00
2023-05-15T02:05:02.607Z,100.00
2023-05-15T02:06:58.672Z,100.00
2023-05-15T02:08:55.839Z,100.00
2023-05-15T02:10:52.417Z,100.00
2023-05-15T02:12:49.561Z,100.00
2023-05-15T02:14:49.529Z,100.00
2023-05-15T02:16:44.574Z,100.00
2023-05-15T02:18:40.321Z,100.00
2023-05-15T02:20:35.345Z,100.00
2023-05-15T02:22:30.678Z,100.00
2023-05-15T02:24:25.728Z,100.00
2023-05-15T02:26:32.995Z,100.00
2023-05-15T02:28:33.866Z,100.00
2023-05-15T02:30:39.871Z,100.00
2023-05-15T02:32:46.370Z,100.00
2023-05-15T02:34:48.036Z,100.00
2023-05-15T02:36:46.375Z,100.00
2023-05-15T02:38:49.622Z,100.00
2023-05-15T02:40:46.123Z,100.00
2023-05-15T02:42:43.286Z,100.00
2023-05-15T02:44:40.027Z,100.00
2023-05-15T02:46:39.421Z,100.00
2023-05-15T02:48:35.089Z,100.00
2023-05-15T02:50:30.962Z,100.00
2023-05-15T02:52:26.891Z,100.00
2023-05-15T02:54:22.573Z,100.00
2023-05-15T02:56:17.554Z,100.00
2023-05-15T02:58:13.198Z,100.00
2023-05-15T03:00:11.885Z,100.00
2023-05-15T03:02:09.948Z,100.00
2023-05-15T03:04:05.230Z,100.00
2023-05-15T03:06:01.039Z,100.00
2023-05-15T03:07:56.660Z,100.00
2023-05-15T03:09:52.307Z,100.00
2023-05-15T03:11:47.642Z,100.00
2023-05-15T03:13:43.292Z,100.00
2023-05-15T03:15:38.639Z,100.00
2023-05-15T03:17:36.883Z,100.00
2023-05-15T03:19:32.221Z,100.00
2023-05-15T03:21:27.915Z,100.00
2023-05-15T03:23:23.323Z,100.00
2023-05-15T03:25:19.932Z,100.00
2023-05-15T03:27:15.124Z,100.00
2023-05-15T03:29:10.682Z,100.00
2023-05-15T03:31:06.111Z,100.00
2023-05-15T03:33:04.155Z,100.00
2023-05-15T03:34:59.285Z,100.00
2023-05-15T03:36:54.628Z,100.00
2023-05-15T03:38:49.643Z,100.00
2023-05-15T03:40:44.915Z,100.00
2023-05-15T03:42:39.910Z,100.00
2023-05-15T03:44:35.289Z,100.00
2023-05-15T03:46:30.308Z,100.00
2023-05-15T03:48:28.261Z,100.00
2023-05-15T03:50:23.520Z,100.00
2023-05-15T03:52:18.939Z,100.00
2023-05-15T03:54:13.952Z,100.00
2023-05-15T03:56:09.713Z,100.00
2023-05-15T03:58:05.063Z,100.00
2023-05-15T04:00:01.361Z,100.00
2023-05-15T04:04:00.481Z,100.00
2023-05-15T04:05:55.792Z,100.00
2023-05-15T04:07:51.136Z,100.00
2023-05-15T04:09:46.151Z,100.00
2023-05-15T04:11:41.560Z,100.00
2023-05-15T04:13:36.509Z,100.00
2023-05-15T04:15:32.415Z,100.00
2023-05-15T04:17:27.503Z,100.00
2023-05-15T04:19:25.500Z,100.00
2023-05-15T04:21:20.636Z,100.00
2023-05-15T04:23:16.011Z,100.00
2023-05-15T04:25:12.082Z,100.00
2023-05-15T04:27:08.167Z,100.00
2023-05-15T04:29:04.740Z,100.00
2023-05-15T04:31:01.449Z,100.00
2023-05-15T04:32:56.825Z,100.00
2023-05-15T04:34:54.818Z,100.00
2023-05-15T04:36:49.887Z,100.00
2023-05-15T04:38:45.213Z,100.00
2023-05-15T04:40:40.202Z,100.00
2023-05-15T04:42:35.741Z,100.00
2023-05-15T04:44:30.732Z,100.00
2023-05-15T04:46:26.578Z,100.00
2023-05-15T04:48:21.974Z,100.00
2023-05-15T04:50:19.937Z,100.00
2023-05-15T04:52:14.993Z,100.00
2023-05-15T04:54:11.820Z,100.00
2023-05-15T04:56:07.155Z,100.00
2023-05-15T04:58:02.456Z,100.00
2023-05-15T04:59:58.235Z,100.00
2023-05-15T05:01:53.810Z,100.00
2023-05-15T05:03:48.913Z,100.00
2023-05-15T05:05:46.985Z,100.00
2023-05-15T05:07:42.468Z,100.00
2023-05-15T05:09:37.822Z,100.00
2023-05-15T05:11:32.788Z,100.00
2023-05-15T05:13:28.129Z,100.00
2023-05-15T05:15:23.359Z,100.00
2023-05-15T05:17:19.194Z,100.00
2023-05-15T05:19:14.294Z,100.00
2023-05-15T05:21:12.304Z,100.00
2023-05-15T05:23:07.329Z,100.00
2023-05-15T05:25:02.737Z,100.00
2023-05-15T05:26:58.282Z,100.00
2023-05-15T05:28:53.928Z,100.00
2023-05-15T05:30:49.672Z,100.00
2023-05-15T05:32:45.372Z,100.00
2023-05-15T05:34:40.638Z,100.00
2023-05-15T05:36:39.173Z,100.00
2023-05-15T05:38:34.527Z,100.00
2023-05-15T05:40:30.141Z,100.00
2023-05-15T05:42:25.507Z,100.00
2023-05-15T05:44:21.181Z,100.00
2023-05-15T05:46:16.488Z,100.00
2023-05-15T05:48:13.441Z,100.00
2023-05-15T05:50:10.313Z,100.00
2023-05-15T05:52:13.055Z,100.00
2023-05-15T05:54:08.241Z,100.00
2023-05-15T05:56:03.853Z,100.00
2023-05-15T05:57:59.114Z,100.00
2023-05-15T05:59:54.611Z,100.00
2023-05-15T06:01:51.040Z,100.00
2023-05-15T06:03:46.864Z,100.00
2023-05-15T06:05:42.490Z,100.00
2023-05-15T06:07:41.610Z,100.00
2023-05-15T06:09:36.649Z,100.00
2023-05-15T06:11:32.096Z,100.00
2023-05-15T06:13:27.135Z,100.00
2023-05-15T06:15:22.734Z,100.00
2023-05-15T06:17:18.133Z,100.00
2023-05-15T06:19:13.618Z,100.00
2023-05-15T06:21:08.788Z,100.00
2023-05-15T06:23:08.506Z,100.00
2023-05-15T06:25:05.086Z,100.00
2023-05-15T06:27:01.149Z,100.00
2023-05-15T06:28:56.200Z,100.00
2023-05-15T06:30:51.571Z,100.00
2023-05-15T06:32:46.809Z,100.00
2023-05-15T06:34:42.196Z,100.00
2023-05-15T06:36:37.189Z,100.00
2023-05-15T06:38:35.079Z,100.00
2023-05-15T06:40:30.160Z,100.00
2023-05-15T06:42:25.503Z,100.00
2023-05-15T06:44:20.443Z,100.00
2023-05-15T06:46:17.093Z,100.00
2023-05-15T06:48:12.331Z,100.00
2023-05-15T06:50:08.730Z,100.00
2023-05-15T06:52:03.752Z,100.00
2023-05-15T06:54:01.694Z,100.00
2023-05-15T06:55:56.685Z,100.00
2023-05-15T06:57:51.996Z,100.00
2023-05-15T06:59:47.040Z,100.00
2023-05-15T07:01:42.522Z,100.00
2023-05-15T07:03:37.596Z,100.00
2023-05-15T07:05:33.550Z,100.00
2023-05-15T07:07:29.118Z,100.00
2023-05-15T07:09:28.169Z,100.00
2023-05-15T07:11:24.080Z,100.00
2023-05-15T07:13:21.026Z,100.00
2023-05-15T07:15:17.861Z,100.00
2023-05-15T07:17:14.294Z,100.00
2023-05-15T07:19:11.892Z,100.00
2023-05-15T07:21:08.020Z,100.00
2023-05-15T07:23:03.303Z,100.00
2023-05-15T07:25:04.935Z,100.00
2023-05-15T07:27:02.852Z,100.00
2023-05-15T07:29:00.604Z,100.00
2023-05-15T07:30:56.260Z,100.00
2023-05-15T07:32:52.469Z,100.00
2023-05-15T07:34:48.754Z,100.00
2023-05-15T07:36:45.459Z,100.00
2023-05-15T07:38:41.150Z,100.00
2023-05-15T07:40:40.455Z,100.00
2023-05-15T07:42:36.153Z,99.21
2023-05-15T07:44:32.245Z,95.89
2023-05-15T07:46:27.435Z,96.03
2023-05-15T07:48:23.522Z,94.82
2023-05-15T07:50:19.583Z,93.14
2023-05-15T07:52:14.918Z,94.59
2023-05-15T07:54:09.965Z,94.08
2023-05-15T07:56:08.292Z,95.47
2023-05-15T07:58:03.503Z,95.41
2023-05-15T07:59:59.463Z,96.28
2023-05-15T08:01:54.491Z,96.43
2023-05-15T08:03:50.036Z,95.73
2023-05-15T08:05:45.166Z,99.75
2023-05-15T08:07:40.928Z,98.09
2023-05-15T08:09:35.879Z,99.56
2023-05-15T08:11:38.739Z,97.02
2023-05-15T08:13:34.701Z,96.76
2023-05-15T08:15:30.106Z,97.31
2023-05-15T08:17:26.037Z,97.53
2023-05-15T08:19:22.250Z,98.88
2023-05-15T08:21:17.428Z,99.33
2023-05-15T08:23:15.582Z,97.77
2023-05-15T08:25:11.835Z,94.71
2023-05-15T08:27:11.236Z,94.54
2023-05-15T08:29:06.243Z,95.92
2023-05-15T08:31:01.683Z,96.13
2023-05-15T08:32:57.075Z,92.52
2023-05-15T08:34:52.544Z,91.34
2023-05-15T08:36:47.997Z,92.25
2023-05-15T08:38:43.347Z,91.08
2023-05-15T08:40:40.122Z,89.65
2023-05-15T08:42:45.870Z,88.67
2023-05-15T08:44:41.914Z,89.47
2023-05-15T08:46:37.956Z,88.62
2023-05-15T08:48:33.037Z,89.74
2023-05-15T08:50:29.207Z,90.90
2023-05-15T08:52:24.795Z,91.04
2023-05-15T08:54:21.314Z,90.92
2023-05-15T08:56:16.511Z,94.30
2023-05-15T08:58:14.860Z,96.98
2023-05-15T09:00:14.922Z,96.71
2023-05-15T09:02:10.539Z,96.30
2023-05-15T09:04:06.196Z,97.01
2023-05-15T09:06:02.380Z,96.78
2023-05-15T09:07:58.297Z,96.78
2023-05-15T09:09:54.997Z,97.24
2023-05-15T09:11:51.551Z,96.38
2023-05-15T09:13:49.438Z,96.61
2023-05-15T09:15:45.408Z,96.75
2023-05-15T09:17:40.976Z,96.99
2023-05-15T09:19:37.532Z,93.39
2023-05-15T09:21:34.081Z,93.12
2023-05-15T09:23:30.567Z,92.17
2023-05-15T09:25:40.192Z,93.00
2023-05-15T09:27:45.656Z,87.03
2023-05-15T09:29:43.897Z,89.33
2023-05-15T09:31:39.040Z,89.23
2023-05-15T09:33:36.226Z,86.02
2023-05-15T09:35:34.131Z,85.53
2023-05-15T09:37:33.799Z,82.64
2023-05-15T09:39:28.835Z,83.28
2023-05-15T09:41:28.439Z,80.42
2023-05-15T09:43:23.421Z,77.87
2023-05-15T09:45:22.774Z,75.93
2023-05-15T09:47:19.031Z,75.59
2023-05-15T09:49:15.307Z,75.53
2023-05-15T09:51:18.136Z,74.66
2023-05-15T09:55:19.607Z,76.70
2023-05-15T09:57:16.653Z,77.39
2023-05-15T09:59:16.915Z,75.65
2023-05-15T10:01:16.121Z,76.43
2023-05-15T10:03:12.790Z,77.16
2023-05-15T10:05:14.726Z,76.45
2023-05-15T10:07:11.229Z,77.07
2023-05-15T10:09:07.301Z,76.10
2023-05-15T10:11:03.408Z,78.21
2023-05-15T10:13:03.559Z,81.20
2023-05-15T10:15:01.069Z,82.57
2023-05-15T10:16:59.733Z,83.81
2023-05-15T10:18:55.670Z,85.99
2023-05-15T10:20:52.329Z,84.02
2023-05-15T10:22:50.460Z,84.59
2023-05-15T10:24:48.192Z,82.76
2023-05-15T10:26:44.685Z,82.87
2023-05-15T10:28:42.845Z,82.41
2023-05-15T10:30:40.038Z,80.02
2023-05-15T10:32:39.202Z,77.96
2023-05-15T10:34:35.193Z,82.45
2023-05-15T10:36:31.123Z,79.99
2023-05-15T10:38:27.710Z,79.49
2023-05-15T10:40:24.275Z,80.98
2023-05-15T10:42:20.138Z,77.96
2023-05-15T10:44:17.674Z,76.19
2023-05-15T10:46:13.897Z,80.11
2023-05-15T10:48:12.848Z,76.78
2023-05-15T10:50:09.631Z,78.03
2023-05-15T10:52:05.209Z,80.12
2023-05-15T10:54:00.512Z,79.43
2023-05-15T10:55:56.197Z,75.78
2023-05-15T10:57:51.924Z,75.58
2023-05-15T10:59:47.360Z,71.74
2023-05-15T11:01:43.873Z,70.16
2023-05-15T11:03:49.389Z,70.26
2023-05-15T11:06:13.004Z,70.89
2023-05-15T11:08:29.166Z,72.12
2023-05-15T11:10:40.400Z,71.78
2023-05-15T11:13:00.491Z,68.15
2023-05-15T11:15:23.797Z,65.69
2023-05-15T11:17:19.295Z,67.39
2023-05-15T11:19:28.161Z,74.21
2023-05-15T11:21:23.700Z,78.80
2023-05-15T11:23:18.963Z,75.41
2023-05-15T11:25:16.178Z,79.31
2023-05-15T11:27:15.394Z,82.73
2023-05-15T11:29:21.445Z,83.03
2023-05-15T11:31:16.948Z,82.59
2023-05-15T11:33:14.072Z,79.89
2023-05-15T11:35:14.777Z,76.37
2023-05-15T11:37:19.839Z,77.13
2023-05-15T11:39:15.803Z,75.87
2023-05-15T11:41:24.255Z,73.41
2023-05-15T11:43:24.801Z,71.37
2023-05-15T11:45:20.292Z,75.98
2023-05-15T11:47:15.345Z,72.83
2023-05-15T11:49:11.410Z,70.00
2023-05-15T11:51:18.142Z,73.89
2023-05-15T11:53:14.101Z,66.96
2023-05-15T11:55:10.855Z,66.26
2023-05-15T11:57:06.251Z,63.90
2023-05-15T11:59:02.607Z,62.86
2023-05-15T12:00:58.095Z,61.53
2023-05-15T12:02:55.622Z,60.62
2023-05-15T12:04:52.815Z,59.27
2023-05-15T12:06:57.996Z,59.52
2023-05-15T12:08:57.308Z,62.25
2023-05-15T12:10:55.497Z,61.14
2023-05-15T12:12:52.484Z,51.80
2023-05-15T12:14:48.772Z,51.45
2023-05-15T12:16:47.327Z,51.38
2023-05-15T12:18:45.234Z,53.29
2023-05-15T12:20:47.091Z,53.04
2023-05-15T12:22:46.348Z,54.60
2023-05-15T12:24:43.105Z,53.32
2023-05-15T12:26:40.636Z,52.81
2023-05-15T12:28:38.884Z,51.39
2023-05-15T12:30:36.615Z,47.56
2023-05-15T12:32:35.319Z,47.09
2023-05-15T12:34:36.585Z,45.86
2023-05-15T12:36:34.876Z,45.44
2023-05-15T12:38:37.844Z,44.43
2023-05-15T12:40:37.794Z,43.74
2023-05-15T12:42:40.914Z,42.76
2023-05-15T12:44:37.683Z,43.02
2023-05-15T12:46:38.147Z,43.71
2023-05-15T12:48:35.788Z,44.10
2023-05-15T12:50:32.287Z,44.11
2023-05-15T12:52:36.098Z,44.05
2023-05-15T12:54:42.613Z,44.28
2023-05-15T12:56:39.370Z,44.86
2023-05-15T12:58:38.412Z,45.78
2023-05-15T13:00:35.464Z,44.53
2023-05-15T13:02:34.166Z,45.47
2023-05-15T13:04:30.462Z,43.34
2023-05-15T13:06:34.764Z,42.85
2023-05-15T13:08:45.714Z,43.95
2023-05-15T13:10:51.126Z,43.78
2023-05-15T13:12:49.219Z,42.34
2023-05-15T13:14:45.923Z,41.69
2023-05-15T13:16:41.520Z,41.03
2023-05-15T13:18:37.156Z,40.28
2023-05-15T13:20:35.851Z,42.00
2023-05-15T13:22:31.501Z,42.21
2023-05-15T13:24:28.358Z,39.23
2023-05-15T13:26:26.412Z,39.76
2023-05-15T13:28:21.467Z,38.84
2023-05-15T13:30:17.975Z,39.29
2023-05-15T13:32:18.986Z,38.72
2023-05-15T13:34:20.374Z,39.20
2023-05-15T13:36:19.441Z,39.64
2023-05-15T13:38:20.155Z,41.23
2023-05-15T13:40:19.432Z,41.56
2023-05-15T13:42:25.428Z,42.25
2023-05-15T13:44:27.415Z,41.44
2023-05-15T13:46:31.065Z,40.99
2023-05-15T13:48:26.781Z,40.96
2023-05-15T13:50:23.804Z,41.63
2023-05-15T13:52:20.937Z,44.24
2023-05-15T13:54:16.847Z,45.74
2023-05-15T13:56:33.942Z,47.07
2023-05-15T13:58:32.208Z,47.44
2023-05-15T14:03:21.481Z,49.81
2023-05-15T14:05:18.429Z,50.10
2023-05-15T14:07:13.604Z,50.82
2023-05-15T14:09:09.272Z,51.98
2023-05-15T14:11:06.364Z,53.54
2023-05-15T14:13:01.804Z,53.95
2023-05-15T14:15:00.037Z,55.79
2023-05-15T14:16:59.488Z,57.44
2023-05-15T14:22:27.264Z,60.33
2023-05-15T14:24:23.253Z,60.79
2023-05-15T14:26:20.556Z,60.40
2023-05-15T14:28:16.773Z,60.32
2023-05-15T14:30:15.893Z,60.15
2023-05-15T14:32:12.117Z,59.66
2023-05-15T14:34:18.189Z,59.62
2023-05-15T14:36:13.776Z,59.02
2023-05-15T14:38:09.153Z,59.03
2023-05-15T14:40:05.238Z,60.34
2023-05-15T14:42:02.283Z,61.26
2023-05-15T14:43:57.844Z,61.46
2023-05-15T14:45:56.078Z,61.49
2023-05-15T14:47:51.633Z,61.58
2023-05-15T14:50:06.310Z,61.95
2023-05-15T14:52:02.273Z,61.60
2023-05-15T14:53:57.490Z,60.67
2023-05-15T14:55:53.086Z,60.71
2023-05-15T14:57:49.506Z,61.52
2023-05-15T14:59:53.695Z,61.87
2023-05-15T15:01:58.393Z,60.74
2023-05-15T15:03:54.705Z,59.70
2023-05-15T15:05:51.607Z,60.35
2023-05-15T15:08:04.976Z,60.96
2023-05-15T15:10:04.585Z,60.26
2023-05-15T15:12:02.279Z,59.67
2023-05-15T15:13:58.457Z,59.06
2023-05-15T15:15:57.055Z,58.60
2023-05-15T15:18:01.146Z,56.56
2023-05-15T15:20:01.852Z,56.19
2023-05-15T15:22:01.835Z,55.97
2023-05-15T15:24:06.572Z,56.28
2023-05-15T15:26:03.815Z,56.12
2023-05-15T15:28:00.915Z,55.61
2023-05-15T15:29:56.748Z,52.63
2023-05-15T15:31:55.389Z,53.28
2023-05-15T15:34:22.695Z,51.51
2023-05-15T15:36:22.270Z,49.71
2023-05-15T15:38:19.758Z,50.75
2023-05-15T15:40:24.201Z,51.60
2023-05-15T15:42:22.759Z,51.69
2023-05-15T15:44:22.082Z,52.48
2023-05-15T15:46:17.339Z,53.22
2023-05-15T15:48:13.522Z,53.55
2023-05-15T15:50:12.970Z,53.60
2023-05-15T15:52:09.241Z,53.05
2023-05-15T15:54:05.028Z,53.44
2023-05-15T15:56:01.493Z,52.97
2023-05-15T15:57:56.719Z,52.94
2023-05-15T15:59:52.701Z,53.02
2023-05-15T16:01:48.285Z,53.18
2023-05-15T16:03:44.590Z,53.52
2023-05-15T16:05:42.682Z,53.92
2023-05-15T16:07:38.707Z,54.73
2023-05-15T16:09:37.713Z,54.82
2023-05-15T16:13:32.022Z,53.80
2023-05-15T16:15:28.368Z,53.49
2023-05-15T16:17:26.028Z,53.94
2023-05-15T16:19:24.057Z,54.11
2023-05-15T16:21:36.510Z,52.42
2023-05-15T16:23:36.459Z,53.12
2023-05-15T16:25:31.922Z,53.33
2023-05-15T16:27:27.566Z,53.87
2023-05-15T16:29:23.698Z,53.81
2023-05-15T16:31:19.574Z,53.39
2023-05-15T16:33:14.919Z,52.38
2023-05-15T16:35:14.854Z,52.57
2023-05-15T16:37:21.979Z,53.27
2023-05-15T16:39:20.912Z,54.33
2023-05-15T16:41:19.512Z,54.66
2023-05-15T16:43:15.210Z,55.25
2023-05-15T16:45:11.964Z,55.44
2023-05-15T16:47:08.920Z,56.46
2023-05-15T16:49:08.990Z,57.38
2023-05-15T16:51:07.241Z,55.71
2023-05-15T16:53:05.490Z,56.04
2023-05-15T16:55:01.562Z,55.32
2023-05-15T16:57:00.130Z,56.23
2023-05-15T16:58:58.340Z,57.76
2023-05-15T17:00:55.807Z,59.11
2023-05-15T17:02:52.478Z,60.34
2023-05-15T17:04:48.069Z,62.41
2023-05-15T17:06:47.379Z,63.06
2023-05-15T17:08:46.415Z,64.02
2023-05-15T17:10:43.029Z,64.14
2023-05-15T17:12:42.093Z,63.72
2023-05-15T17:14:37.863Z,65.69
2023-05-15T17:16:33.070Z,65.81
2023-05-15T17:18:28.767Z,66.10
2023-05-15T17:20:24.423Z,66.92
2023-05-15T17:22:20.234Z,66.94
2023-05-15T17:24:18.045Z,71.10
2023-05-15T17:26:13.620Z,71.01
2023-05-15T17:28:14.246Z,71.32
2023-05-15T17:30:33.868Z,73.86
2023-05-15T17:32:53.704Z,76.32
2023-05-15T17:35:33.245Z,80.28
2023-05-15T17:41:22.462Z,93.73
2023-05-15T17:54:30.185Z,95.33
2023-05-15T17:59:52.070Z,95.80
2023-05-15T18:01:49.097Z,96.17
2023-05-15T18:03:51.837Z,95.75
2023-05-15T18:05:53.142Z,95.95
2023-05-15T18:07:50.432Z,95.55
2023-05-15T18:09:48.353Z,94.79
2023-05-15T18:11:46.659Z,95.58
2023-05-15T18:13:46.493Z,95.70
2023-05-15T18:15:45.695Z,94.72
2023-05-15T18:18:14.990Z,96.26
2023-05-15T18:46:53.035Z,97.96
2023-05-15T18:49:11.031Z,97.23
2023-05-15T18:54:35.823Z,100.00
2023-05-15T18:57:36.685Z,100.00
2023-05-15T18:59:45.805Z,100.00
2023-05-15T19:02:08.838Z,100.00
2023-05-15T19:05:10.366Z,100.00
2023-05-15T19:07:59.855Z,100.00
2023-05-15T19:10:22.147Z,100.00
2023-05-15T19:12:22.659Z,100.00
2023-05-15T19:14:47.349Z,100.00
2023-05-15T19:16:53.088Z,100.00
2023-05-15T19:19:00.002Z,100.00
2023-05-15T19:21:30.261Z,100.00
2023-05-15T19:23:52.694Z,100.00
2023-05-15T20:13:38.378Z,100.00
2023-05-15T20:16:23.127Z,100.00
2023-05-15T20:19:03.774Z,100.00
2023-05-15T20:21:40.721Z,100.00
2023-05-15T20:23:55.165Z,100.00
2023-05-15T20:25:55.933Z,100.00
2023-05-15T20:28:06.668Z,100.00
2023-05-15T20:30:02.439Z,100.00
2023-05-15T20:32:02.294Z,100.00
2023-05-15T20:33:59.319Z,100.00
2023-05-15T20:35:58.421Z,100.00
2023-05-15T20:37:53.779Z,100.00
2023-05-15T20:40:38.840Z,100.00
2023-05-15T20:43:15.618Z,100.00
2023-05-15T20:49:09.656Z,100.00
2023-05-15T20:57:43.053Z,100.00
2023-05-15T21:03:24.049Z,100.00
2023-05-15T21:09:18.227Z,100.00
2023-05-15T21:42:45.429Z,100.00
2023-05-15T21:45:03.748Z,100.00
2023-05-15T21:47:32.798Z,100.00
2023-05-15T21:49:37.787Z,100.00
2023-05-15T21:51:43.611Z,100.00
2023-05-15T21:53:49.472Z,100.00
2023-05-15T21:55:52.882Z,100.00
2023-05-15T21:57:52.197Z,100.00
2023-05-15T22:00:29.411Z,100.00
2023-05-15T22:04:20.119Z,100.00
2023-05-15T22:06:54.348Z,100.00
2023-05-15T22:10:31.251Z,100.00
2023-05-15T22:12:30.419Z,100.00
2023-05-15T22:15:15.181Z,100.00
2023-05-15T22:21:45.876Z,100.00
2023-05-15T22:24:24.990Z,100.00
2023-05-15T22:26:53.132Z,100.00
2023-05-15T22:46:21.160Z,100.00
2023-05-15T22:48:38.050Z,100.00
2023-05-15T22:51:29.116Z,100.00
2023-05-15T22:59:51.832Z,100.00
2023-05-15T23:01:49.375Z,100.00
2023-05-15T23:04:10.350Z,100.00
2023-05-15T23:07:34.694Z,100.00
2023-05-15T23:10:18.102Z,100.00
2023-05-15T23:13:25.059Z,100.00
2023-05-15T23:16:31.144Z,100.00
2023-05-15T23:22:48.326Z,100.00
2023-05-15T23:39:19.856Z,100.00
2023-05-15T23:41:15.514Z,100.00
2023-05-15T23:43:10.484Z,100.00
2023-05-15T23:45:06.410Z,100.00
2023-05-15T23:47:01.477Z,100.00
2023-05-15T23:48:59.614Z,100.00
2023-05-15T23:50:54.863Z,100.00
2023-05-15T23:52:50.212Z,100.00
2023-05-15T23:54:45.241Z,100.00
2023-05-15T23:56:40.684Z,100.00
2023-05-15T23:58:35.794Z,100.00
